Time;durP1;ratioP1;P1;durP2;ratioP2;P2;SDS_P1;SDS_P2;PMS_P1;PMS_P2;Temp;Humidity;BMP_temperature;BMP_pressure;BME280_temperature;BME280_humidity;BME280_pressure;Samples;Min_cycle;Max_cycle;Signal;HPM_P1;HPM_P2
2023/02/18 00:01:19;;;;;;;77.63;33.65;;;;;;;2.31;100.00;98126.06;5080328;28;20396;-81
2023/02/18 00:03:44;;;;;;;69.88;30.35;;;;;;;2.19;100.00;98103.41;5079736;28;20028;-81
2023/02/18 00:06:21;;;;;;;68.95;27.10;;;;;;;2.27;100.00;98116.47;5089078;28;20033;-81
2023/02/18 00:08:47;;;;;;;81.20;29.02;;;;;;;2.21;100.00;98119.22;5065673;28;20052;-80
2023/02/18 00:11:13;;;;;;;65.32;28.40;;;;;;;2.25;100.00;98111.22;5064168;28;20043;-81
2023/02/18 00:13:39;;;;;;;75.90;29.52;;;;;;;2.20;100.00;98099.88;5061043;28;20089;-80
2023/02/18 00:16:07;;;;;;;86.57;30.88;;;;;;;2.23;100.00;98102.47;5086087;28;20028;-81
2023/02/18 00:18:33;;;;;;;79.28;31.05;;;;;;;2.20;100.00;98084.06;5066849;28;20043;-80
2023/02/18 00:20:58;;;;;;;73.70;29.90;;;;;;;2.26;100.00;98097.13;5059295;28;20044;-80
2023/02/18 00:23:24;;;;;;;84.15;32.30;;;;;;;2.24;100.00;98087.50;5060795;28;20050;-80
2023/02/18 00:25:58;;;;;;;79.03;31.13;;;;;;;2.21;100.00;98075.25;5076369;28;20401;-81
2023/02/18 00:28:24;;;;;;;84.45;30.95;;;;;;;2.28;100.00;98079.47;5059644;28;20128;-81
2023/02/18 00:30:49;;;;;;;72.30;31.08;;;;;;;2.32;100.00;98088.22;5075691;28;20075;-81
2023/02/18 00:33:15;;;;;;;71.80;31.25;;;;;;;2.24;100.00;98072.53;5086478;28;20458;-81
2023/02/18 00:35:41;;;;;;;100.45;34.88;;;;;;;2.23;100.00;98084.00;5076505;28;20458;-81
2023/02/18 00:38:07;;;;;;;92.38;33.40;;;;;;;2.36;100.00;98101.31;5072196;28;20037;-81
2023/02/18 00:40:38;;;;;;;104.15;37.92;;;;;;;2.36;100.00;98088.13;5073824;28;20036;-81
2023/02/18 00:43:04;;;;;;;92.45;34.28;;;;;;;2.35;100.00;98093.41;5090745;28;20024;-81
2023/02/18 00:45:29;;;;;;;100.40;35.15;;;;;;;2.45;100.00;98098.50;5081518;28;20020;-81
2023/02/18 00:47:55;;;;;;;91.10;34.65;;;;;;;2.38;100.00;98099.50;5095399;28;20031;-81
2023/02/18 00:50:21;;;;;;;112.50;37.67;;;;;;;2.36;100.00;98100.44;5090130;28;20023;-81
2023/02/18 00:52:46;;;;;;;100.28;36.47;;;;;;;2.28;100.00;98094.47;5080960;28;20032;-80
2023/02/18 00:55:11;;;;;;;84.63;33.60;;;;;;;2.29;100.00;98099.69;5076404;28;20089;-81
2023/02/18 00:57:37;;;;;;;89.63;33.92;;;;;;;2.32;100.00;98107.56;5063769;28;20051;-81
2023/02/18 01:00:04;;;;;;;89.57;34.20;;;;;;;2.30;100.00;98093.53;5086373;28;20035;-81
2023/02/18 01:02:30;;;;;;;83.82;32.88;;;;;;;2.38;100.00;98112.72;5067607;28;20115;-80
2023/02/18 01:04:55;;;;;;;119.13;42.45;;;;;;;2.41;100.00;98117.91;5066728;28;20023;-81
2023/02/18 01:07:21;;;;;;;98.90;39.60;;;;;;;2.40;100.00;98095.06;5088056;28;20031;-81
2023/02/18 01:09:47;;;;;;;86.07;35.30;;;;;;;2.48;100.00;98092.28;5060999;28;20036;-81
2023/02/18 01:12:12;;;;;;;92.45;36.60;;;;;;;2.42;100.00;98080.06;5076017;28;20062;-81
2023/02/18 01:14:38;;;;;;;82.72;35.15;;;;;;;2.41;100.00;98075.69;5091156;28;20024;-81
2023/02/18 01:17:03;;;;;;;74.35;31.77;;;;;;;2.63;100.00;98082.25;5074336;28;20459;-81
2023/02/18 01:19:28;;;;;;;81.95;33.13;;;;;;;2.60;100.00;98077.03;5074079;28;20122;-81
2023/02/18 01:21:54;;;;;;;78.32;32.40;;;;;;;2.47;100.00;98065.00;5072410;28;20070;-80
2023/02/18 01:24:20;;;;;;;65.47;28.73;;;;;;;2.41;100.00;98066.91;5070291;28;20480;-81
2023/02/18 01:26:45;;;;;;;58.58;25.08;;;;;;;2.31;100.00;98057.47;5068492;28;20024;-80
2023/02/18 01:29:11;;;;;;;47.08;20.25;;;;;;;2.31;100.00;98063.56;5069379;28;20489;-80
2023/02/18 01:31:36;;;;;;;44.05;19.65;;;;;;;2.23;100.00;98060.25;5065090;28;20020;-80
2023/02/18 01:34:02;;;;;;;50.67;19.58;;;;;;;1.99;100.00;98069.53;5068864;28;20056;-80
2023/02/18 01:36:27;;;;;;;50.28;20.05;;;;;;;1.96;100.00;98081.91;5075232;28;20409;-80
2023/02/18 01:38:53;;;;;;;57.22;21.77;;;;;;;1.91;100.00;98071.44;5088640;28;20473;-80
2023/02/18 01:41:19;;;;;;;57.35;23.13;;;;;;;1.82;100.00;98074.25;5077897;28;20062;-81
2023/02/18 01:43:45;;;;;;;56.95;24.13;;;;;;;1.95;100.00;98088.06;5081504;28;20154;-80
2023/02/18 01:46:15;;;;;;;46.03;22.13;;;;;;;1.86;100.00;98081.22;5073394;28;20096;-80
2023/02/18 01:48:52;;;;;;;49.25;21.63;;;;;;;1.98;100.00;98094.16;5096213;28;20024;-80
2023/02/18 01:51:20;;;;;;;51.95;20.25;;;;;;;2.08;100.00;98098.38;5078071;28;20036;-80
2023/02/18 01:53:51;;;;;;;40.53;16.85;;;;;;;2.16;100.00;98085.00;5090940;28;20530;-81
2023/02/18 01:56:25;;;;;;;31.80;14.82;;;;;;;2.21;100.00;98091.09;5094971;28;20048;-81
2023/02/18 01:58:52;;;;;;;41.33;16.73;;;;;;;2.26;100.00;98070.75;5088536;28;20036;-81
2023/02/18 02:01:18;;;;;;;39.85;17.83;;;;;;;2.27;100.00;98069.84;5081250;28;20032;-80
2023/02/18 02:03:43;;;;;;;38.58;17.70;;;;;;;2.36;100.00;98059.09;5094826;28;20016;-80
2023/02/18 02:06:15;;;;;;;46.88;19.58;;;;;;;2.42;100.00;98069.53;5086318;28;20047;-80
2023/02/18 02:08:40;;;;;;;32.00;14.60;;;;;;;2.26;100.00;98065.47;5084044;28;20510;-81
2023/02/18 02:11:35;;;;;;;42.00;19.88;;;;;;;2.34;100.00;98079.34;5096952;28;20027;-80
2023/02/18 02:14:34;;;;;;;44.88;19.40;;;;;;;2.36;100.00;98067.00;5094671;28;20019;-81
2023/02/18 02:17:02;;;;;;;48.05;19.83;;;;;;;2.36;100.00;98055.56;5077441;28;20036;-80
2023/02/18 02:19:57;;;;;;;41.55;18.02;;;;;;;2.37;100.00;98052.06;5094024;28;20125;-80
2023/02/18 02:22:40;;;;;;;36.75;15.85;;;;;;;2.42;100.00;98042.25;5093451;28;20028;-80
2023/02/18 02:25:27;;;;;;;35.70;15.38;;;;;;;2.47;100.00;98049.16;5107806;28;20392;-79
2023/02/18 02:28:26;;;;;;;34.65;16.58;;;;;;;2.52;100.00;98052.56;5088928;28;20104;-80
2023/02/18 02:31:02;;;;;;;25.27;11.45;;;;;;;2.55;100.00;98049.84;5097057;28;20036;-79
2023/02/18 02:33:52;;;;;;;29.25;12.98;;;;;;;2.66;100.00;98058.41;5084444;28;20028;-80
2023/02/18 02:36:26;;;;;;;35.88;13.63;;;;;;;2.58;100.00;98063.00;5088212;28;20472;-79
2023/02/18 02:38:58;;;;;;;29.42;12.50;;;;;;;2.52;100.00;98057.84;5069809;28;20028;-80
2023/02/18 02:41:31;;;;;;;32.63;12.38;;;;;;;2.53;100.00;98054.31;5086334;28;20019;-80
2023/02/18 02:44:25;;;;;;;37.20;15.48;;;;;;;2.61;100.00;98056.78;5087518;28;20043;-80
2023/02/18 02:46:53;;;;;;;37.78;16.30;;;;;;;2.64;100.00;98054.94;5063815;28;20041;-79
2023/02/18 02:49:40;;;;;;;33.80;13.73;;;;;;;2.69;100.00;98063.63;5048105;28;20021;-80
2023/02/18 02:52:12;;;;;;;43.08;16.75;;;;;;;2.81;100.00;98059.84;5083150;28;20036;-79
2023/02/18 02:54:38;;;;;;;50.58;19.10;;;;;;;2.83;100.00;98051.88;5074840;28;20024;-80
2023/02/18 03:00:04;;;;;;;45.28;19.05;;;;;;;2.88;100.00;98055.28;5100393;28;20042;-79
2023/02/18 03:03:02;;;;;;;47.00;21.05;;;;;;;2.98;100.00;98057.69;5096164;28;20123;-79
2023/02/18 03:06:01;;;;;;;44.05;17.33;;;;;;;3.04;100.00;98056.66;5100142;28;20020;-79
2023/02/18 03:08:38;;;;;;;38.15;16.80;;;;;;;3.12;100.00;98062.63;5091165;28;20036;-79
2023/02/18 03:11:10;;;;;;;55.75;21.33;;;;;;;3.33;100.00;98064.72;5079022;28;20029;-79
2023/02/18 03:14:00;;;;;;;49.90;19.23;;;;;;;3.39;100.00;98067.22;5084648;28;20035;-79
2023/02/18 03:16:27;;;;;;;50.95;18.95;;;;;;;3.37;100.00;98069.03;5099980;28;20063;-79
2023/02/18 03:19:05;;;;;;;29.05;13.50;;;;;;;3.41;100.00;98067.19;5096637;28;20465;-81
2023/02/18 03:21:55;;;;;;;38.22;16.05;;;;;;;3.48;100.00;98064.34;5097817;28;20108;-81
2023/02/18 03:24:43;;;;;;;43.38;16.70;;;;;;;3.47;100.00;98074.97;5081485;28;20036;-80
2023/02/18 03:27:17;;;;;;;40.67;16.23;;;;;;;3.36;100.00;98072.56;5071364;28;20576;-80
2023/02/18 03:29:45;;;;;;;34.78;13.85;;;;;;;3.23;100.00;98065.88;5091061;28;20039;-80
2023/02/18 03:32:13;;;;;;;34.72;14.18;;;;;;;3.23;100.00;98058.78;5072490;28;20084;-80
2023/02/18 03:34:43;;;;;;;33.55;14.02;;;;;;;3.36;100.00;98075.22;5071226;28;20062;-80
2023/02/18 03:37:09;;;;;;;35.25;14.73;;;;;;;3.38;100.00;98067.28;5080720;28;20035;-81
2023/02/18 03:39:35;;;;;;;38.58;14.52;;;;;;;3.38;100.00;98070.78;5094263;28;20024;-80
2023/02/18 03:42:01;;;;;;;37.85;16.60;;;;;;;3.39;100.00;98069.84;5081720;28;20059;-80
2023/02/18 03:44:26;;;;;;;19.48;9.07;;;;;;;3.50;100.00;98067.84;5092613;28;20447;-81
2023/02/18 03:46:52;;;;;;;34.67;14.10;;;;;;;3.81;100.00;98066.09;5103044;28;20031;-80
2023/02/18 03:49:18;;;;;;;38.35;15.15;;;;;;;3.83;100.00;98045.78;5089375;28;20028;-80
2023/02/18 03:51:43;;;;;;;37.35;15.55;;;;;;;3.81;100.00;98049.38;5092903;28;20070;-80
2023/02/18 03:54:09;;;;;;;26.25;12.13;;;;;;;4.09;100.00;98044.19;5110776;28;20054;-80
2023/02/18 03:56:36;;;;;;;30.52;13.13;;;;;;;4.14;100.00;98048.44;5077803;28;20033;-80
2023/02/18 03:59:02;;;;;;;32.83;13.40;;;;;;;4.06;100.00;98036.34;5088315;28;20058;-80
2023/02/18 04:01:27;;;;;;;34.70;12.57;;;;;;;3.97;100.00;98020.72;5082911;28;20525;-80
2023/02/18 04:03:54;;;;;;;31.70;12.27;;;;;;;4.06;100.00;98026.59;5088542;28;20055;-80
2023/02/18 04:06:21;;;;;;;27.10;12.85;;;;;;;4.00;100.00;98026.75;5072391;28;20028;-80
2023/02/18 04:08:56;;;;;;;25.10;12.77;;;;;;;4.00;100.00;98025.91;5076403;28;20571;-81
2023/02/18 04:11:21;;;;;;;28.55;11.73;;;;;;;3.92;100.00;98031.41;5100815;28;20064;-81
2023/02/18 04:13:47;;;;;;;22.73;10.80;;;;;;;3.87;100.00;98013.94;5079784;28;20028;-79
2023/02/18 04:16:12;;;;;;;22.70;10.82;;;;;;;3.80;100.00;98024.69;5105071;28;20027;-80
2023/02/18 04:18:38;;;;;;;24.35;9.45;;;;;;;3.69;100.00;98015.31;5089695;28;20084;-80
2023/02/18 04:21:04;;;;;;;24.23;9.57;;;;;;;3.78;100.00;98021.19;5088218;28;20048;-79
2023/02/18 04:23:29;;;;;;;95.05;47.63;;;;;;;3.66;100.00;98026.00;5090856;28;20020;-79
2023/02/18 04:25:55;;;;;;;90.03;38.83;;;;;;;3.67;100.00;98012.69;5082225;28;20013;-80
2023/02/18 04:28:20;;;;;;;43.42;17.50;;;;;;;3.70;100.00;98009.97;5091864;28;20032;-81
2023/02/18 04:30:46;;;;;;;50.28;19.60;;;;;;;3.77;100.00;98019.47;5108424;28;20035;-80
2023/02/18 04:33:12;;;;;;;87.82;29.17;;;;;;;3.84;100.00;98020.19;5091431;28;20138;-80
2023/02/18 04:35:40;;;;;;;43.80;16.95;;;;;;;3.83;100.00;98023.72;5087056;28;20027;-80
2023/02/18 04:38:06;;;;;;;25.48;9.90;;;;;;;3.87;100.00;98028.03;5086471;28;20458;-80
2023/02/18 04:40:31;;;;;;;18.77;8.75;;;;;;;3.88;100.00;98013.03;5068773;28;20024;-79
2023/02/18 04:42:57;;;;;;;28.90;11.85;;;;;;;3.84;100.00;98012.25;5071827;28;20407;-81
2023/02/18 04:45:24;;;;;;;36.63;15.88;;;;;;;3.91;100.00;97994.44;5069694;28;20020;-81
2023/02/18 04:47:49;;;;;;;70.32;23.83;;;;;;;3.86;100.00;97988.38;5058802;28;20450;-81
2023/02/18 04:50:15;;;;;;;101.95;34.33;;;;;;;4.04;100.00;98006.38;5071409;28;20029;-83
2023/02/18 04:52:40;;;;;;;74.63;25.67;;;;;;;4.14;100.00;97998.13;5097663;28;20023;-80
2023/02/18 04:55:06;;;;;;;39.05;16.58;;;;;;;4.44;100.00;98003.41;5109102;28;20039;-80
2023/02/18 04:57:32;;;;;;;45.75;15.73;;;;;;;4.62;100.00;98005.50;5086590;28;20028;-80
2023/02/18 04:59:57;;;;;;;27.13;10.65;;;;;;;4.71;100.00;97999.91;5085611;28;20500;-80
2023/02/18 05:02:23;;;;;;;25.33;10.02;;;;;;;4.89;100.00;98000.19;5073912;28;20413;-80
2023/02/18 05:04:48;;;;;;;26.13;9.85;;;;;;;5.05;100.00;97992.63;5088742;28;20017;-80
2023/02/18 05:07:14;;;;;;;30.20;11.60;;;;;;;5.18;100.00;97979.81;5088131;28;20028;-80
2023/02/18 05:09:39;;;;;;;34.15;11.88;;;;;;;5.06;100.00;97937.81;5082978;28;20399;-80
2023/02/18 05:12:05;;;;;;;33.47;10.95;;;;;;;5.35;100.00;97973.00;5104541;28;20024;-80
2023/02/18 05:14:31;;;;;;;29.50;13.15;;;;;;;5.37;100.00;97981.81;5090164;28;20028;-81
2023/02/18 05:16:56;;;;;;;26.70;12.43;;;;;;;5.39;100.00;97989.69;5087707;28;20039;-81
2023/02/18 05:19:22;;;;;;;32.50;14.45;;;;;;;5.41;100.00;97975.47;5094065;28;20063;-81
2023/02/18 05:21:47;;;;;;;28.30;11.65;;;;;;;5.44;100.00;97999.22;5131324;28;20024;-81
2023/02/18 05:24:13;;;;;;;32.25;14.10;;;;;;;5.47;100.00;98004.41;5093046;28;20032;-81
2023/02/18 05:26:38;;;;;;;20.90;9.80;;;;;;;5.61;100.00;97995.13;5100378;28;20031;-80
2023/02/18 05:29:04;;;;;;;28.15;12.88;;;;;;;5.86;100.00;97990.72;5097858;28;20028;-81
2023/02/18 05:31:30;;;;;;;24.70;10.70;;;;;;;5.94;100.00;97988.63;5102152;28;20024;-81
2023/02/18 05:33:55;;;;;;;38.65;15.07;;;;;;;6.35;99.16;97989.75;5100573;28;20122;-81
2023/02/18 05:36:21;;;;;;;103.35;42.55;;;;;;;6.32;97.09;97974.81;5091276;28;20032;-79
2023/02/18 05:38:46;;;;;;;84.95;36.05;;;;;;;6.52;94.59;97976.72;5095753;28;20020;-80
2023/02/18 05:41:12;;;;;;;58.45;25.45;;;;;;;6.57;93.78;97958.78;5108034;28;20035;-79
2023/02/18 05:46:22;;;;;;;66.57;27.15;;;;;;;6.80;91.87;97950.75;5091154;28;20525;-80
2023/02/18 05:48:48;;;;;;;89.70;36.38;;;;;;;6.95;91.99;97936.81;5081452;28;20043;-79
2023/02/18 05:51:14;;;;;;;61.08;25.95;;;;;;;7.09;91.62;97921.16;5070107;28;20032;-79
2023/02/18 05:53:39;;;;;;;61.13;26.15;;;;;;;7.20;89.92;97922.53;5084828;28;20032;-80
2023/02/18 05:56:05;;;;;;;73.53;28.40;;;;;;;7.34;88.68;97933.44;5073151;28;20518;-79
2023/02/18 05:58:31;;;;;;;68.63;27.20;;;;;;;7.33;89.15;97939.66;5065064;28;20032;-75
2023/02/18 06:00:56;;;;;;;68.30;26.95;;;;;;;7.42;88.82;97941.94;5082885;28;20034;-85
2023/02/18 06:03:22;;;;;;;33.63;13.98;;;;;;;7.48;87.35;97933.69;5091971;28;20039;-76
2023/02/18 06:05:51;;;;;;;38.35;14.38;;;;;;;7.67;83.52;97929.28;5084143;28;20055;-76
2023/02/18 06:08:19;;;;;;;72.15;27.80;;;;;;;7.74;87.73;97941.41;5056137;28;20028;-73
2023/02/18 06:10:45;;;;;;;65.10;24.58;;;;;;;7.86;86.04;97946.19;5056042;28;20028;-75
2023/02/18 06:13:10;;;;;;;56.75;25.00;;;;;;;8.04;85.06;97947.16;5090843;28;20031;-73
2023/02/18 06:15:37;;;;;;;57.75;23.90;;;;;;;8.08;84.79;97944.28;5057748;28;20040;-74
2023/02/18 06:18:04;;;;;;;42.70;17.92;;;;;;;8.23;78.27;97896.53;5074869;28;20024;-83
2023/02/18 06:20:29;;;;;;;62.53;25.95;;;;;;;8.66;77.04;97917.59;5063178;28;20056;-72
2023/02/18 06:22:55;;;;;;;49.88;21.83;;;;;;;8.91;77.17;97918.13;5061268;28;20036;-74
2023/02/18 06:25:35;;;;;;;49.75;20.80;;;;;;;9.14;75.83;97912.50;5077704;28;20478;-77
2023/02/18 06:28:19;;;;;;;31.88;15.23;;;;;;;9.46;73.51;97912.66;5094931;28;20066;-85
2023/02/18 06:30:46;;;;;;;33.97;14.43;;;;;;;9.63;69.95;97910.84;5086486;28;20028;-83
2023/02/18 06:33:12;;;;;;;52.42;21.77;;;;;;;9.71;72.03;97916.66;5069760;28;20503;-83
2023/02/18 06:35:38;;;;;;;50.17;21.08;;;;;;;9.67;72.07;97903.53;5062264;28;20043;-79
2023/02/18 06:38:22;;;;;;;42.83;19.67;;;;;;;9.84;68.61;97908.84;5078696;28;20027;-83
2023/02/18 06:40:48;;;;;;;51.10;21.23;;;;;;;10.06;66.88;97901.38;5059431;28;20062;-81
2023/02/18 06:43:14;;;;;;;49.38;21.83;;;;;;;10.36;65.64;97901.56;5066059;28;20031;-83
2023/02/18 06:45:39;;;;;;;22.02;9.48;;;;;;;10.71;58.85;97889.75;5094291;28;20055;-81
2023/02/18 06:48:05;;;;;;;19.48;7.38;;;;;;;11.21;55.06;97870.75;5093973;28;20507;-81
2023/02/18 06:50:30;;;;;;;14.98;6.85;;;;;;;11.71;51.97;97856.16;5074667;28;20386;-82
2023/02/18 06:52:56;;;;;;;11.70;5.60;;;;;;;12.17;49.80;97843.41;5059505;28;20381;-83
2023/02/18 06:55:22;;;;;;;11.77;5.28;;;;;;;12.93;47.93;97839.28;5067157;28;20091;-82
2023/02/18 06:58:08;;;;;;;12.80;5.28;;;;;;;13.31;47.13;97834.03;5073072;28;20028;-82
2023/02/18 07:00:34;;;;;;;11.40;5.70;;;;;;;13.45;46.17;97826.75;5063489;28;20476;-80
2023/02/18 07:03:00;;;;;;;16.30;8.48;;;;;;;13.42;46.50;97813.53;5067231;28;20057;-81
2023/02/18 07:05:25;;;;;;;17.38;8.70;;;;;;;13.54;45.86;97801.94;5073445;28;20028;-82
2023/02/18 07:07:51;;;;;;;14.57;7.03;;;;;;;13.69;44.74;97801.84;5065646;28;20046;-82
2023/02/18 07:10:16;;;;;;;16.02;7.40;;;;;;;13.76;44.77;97798.59;5062564;28;20039;-82
2023/02/18 07:12:42;;;;;;;9.77;5.28;;;;;;;13.94;44.13;97783.84;5072158;28;20096;-83
2023/02/18 07:15:08;;;;;;;12.45;6.35;;;;;;;14.25;43.96;97793.25;5076724;28;20069;-82
2023/02/18 07:17:36;;;;;;;13.15;6.53;;;;;;;14.33;43.59;97788.22;5076677;28;20370;-82
2023/02/18 07:21:47;;;;;;;8.25;4.30;;;;;;;14.60;41.93;97774.53;5149512;27;20399;-82
2023/02/18 07:24:12;;;;;;;13.85;6.35;;;;;;;14.77;41.40;97775.94;5131091;27;20031;-82
2023/02/18 07:26:38;;;;;;;8.38;3.20;;;;;;;14.89;40.37;97759.72;5122745;27;20019;-81
2023/02/18 07:29:03;;;;;;;10.77;5.60;;;;;;;15.06;40.22;97775.50;5123116;27;20451;-82
2023/02/18 07:31:32;;;;;;;31.73;11.40;;;;;;;15.27;40.11;97791.84;5122195;27;20023;-82
2023/02/18 07:33:57;;;;;;;8.75;4.57;;;;;;;15.09;40.44;97771.69;5120062;27;20110;-81
2023/02/18 07:36:23;;;;;;;7.68;4.57;;;;;;;15.38;40.18;97781.06;5116380;27;20054;-81
2023/02/18 07:38:48;;;;;;;7.43;3.90;;;;;;;15.60;39.82;97783.00;5129873;27;20022;-81
2023/02/18 07:41:20;;;;;;;8.52;3.65;;;;;;;16.11;39.02;97783.41;5116302;27;20113;-82
2023/02/18 07:43:46;;;;;;;8.50;4.50;;;;;;;16.41;38.69;97775.53;5119149;27;20073;-82
2023/02/18 07:46:11;;;;;;;10.85;4.80;;;;;;;16.57;37.99;97764.34;5123218;27;20295;-82
2023/02/18 07:48:40;;;;;;;8.20;3.83;;;;;;;16.61;38.18;97757.72;5129623;27;20027;-82
2023/02/18 07:51:07;;;;;;;7.43;4.32;;;;;;;16.83;37.69;97768.44;5130647;27;20473;-82
2023/02/18 07:53:32;;;;;;;9.80;4.47;;;;;;;17.38;37.44;97772.72;5131756;27;20049;-82
2023/02/18 07:55:59;;;;;;;8.48;3.60;;;;;;;17.86;35.67;97764.97;5120875;27;20110;-81
2023/02/18 07:58:27;;;;;;;13.18;4.80;;;;;;;17.77;35.68;97765.75;5147454;27;20507;-82
2023/02/18 08:00:53;;;;;;;9.82;4.15;;;;;;;17.87;35.49;97759.38;5113283;27;20069;-82
2023/02/18 08:03:21;;;;;;;12.38;4.60;;;;;;;17.84;35.84;97748.84;5124559;27;20022;-81
2023/02/18 08:05:48;;;;;;;8.25;4.25;;;;;;;17.77;35.60;97750.38;5121702;27;20030;-80
2023/02/18 08:08:24;;;;;;;9.48;4.07;;;;;;;17.80;35.70;97749.25;5112805;27;20035;-81
2023/02/18 08:10:51;;;;;;;9.30;4.18;;;;;;;17.50;35.94;97735.66;5122906;27;20019;-82
2023/02/18 08:13:16;;;;;;;7.22;4.40;;;;;;;17.50;35.59;97754.59;5164525;27;20410;-81
2023/02/18 08:15:42;;;;;;;13.43;3.88;;;;;;;17.66;35.90;97755.88;5119918;27;20026;-82
2023/02/18 08:18:15;;;;;;;8.55;4.40;;;;;;;18.17;35.13;97758.53;5132715;27;20075;-82
2023/02/18 08:20:40;;;;;;;10.18;4.80;;;;;;;18.83;34.22;97769.72;5138582;27;20100;-82
2023/02/18 08:23:06;;;;;;;12.23;5.47;;;;;;;19.33;33.66;97763.16;5147303;27;20034;-81
2023/02/18 08:25:31;;;;;;;13.60;5.40;;;;;;;19.20;34.49;97759.88;5161599;27;20030;-81
2023/02/18 08:27:58;;;;;;;6.88;3.75;;;;;;;18.24;34.86;97719.06;5129983;27;20026;-81
2023/02/18 08:30:23;;;;;;;7.78;4.57;;;;;;;18.86;35.31;97742.31;5157018;27;20022;-81
2023/02/18 08:32:49;;;;;;;11.05;4.38;;;;;;;18.87;34.00;97738.63;5114059;27;20031;-82
2023/02/18 08:35:14;;;;;;;6.82;4.55;;;;;;;18.99;33.06;97720.34;5113316;27;20062;-83
2023/02/18 08:37:40;;;;;;;6.40;3.42;;;;;;;19.28;32.59;97723.91;5115044;27;20035;-82
2023/02/18 08:40:39;;;;;;;6.72;3.80;;;;;;;19.04;32.19;97689.09;5115980;27;20142;-82
2023/02/18 08:43:05;;;;;;;5.90;3.30;;;;;;;18.36;32.69;97679.22;5060090;27;20050;-82
2023/02/18 08:45:31;;;;;;;7.53;4.25;;;;;;;18.18;33.83;97668.16;5115516;27;20110;-82
2023/02/18 08:47:56;;;;;;;9.55;3.65;;;;;;;18.05;34.44;97685.69;5107204;27;20537;-81
2023/02/18 08:50:25;;;;;;;13.20;4.13;;;;;;;18.10;34.38;97669.88;5112742;27;20019;-81
2023/02/18 08:52:51;;;;;;;13.20;6.63;;;;;;;18.14;34.99;97684.84;5107435;27;20023;-81
2023/02/18 08:55:20;;;;;;;8.38;4.53;;;;;;;18.38;33.97;97688.91;5127128;27;20106;-82
2023/02/18 08:58:09;;;;;;;26.45;6.00;;;;;;;18.54;34.69;97682.09;5109502;27;20018;-82
2023/02/18 09:00:35;;;;;;;7.03;3.10;;;;;;;18.73;34.90;97698.41;5123796;27;20043;-83
2023/02/18 09:03:01;;;;;;;9.65;3.75;;;;;;;18.64;33.99;97678.38;5098275;27;20023;-82
2023/02/18 09:05:26;;;;;;;6.72;3.60;;;;;;;19.33;33.78;97705.34;5106457;27;20110;-82
2023/02/18 09:07:52;;;;;;;12.35;3.72;;;;;;;20.18;32.27;97711.50;5145626;27;20038;-82
2023/02/18 09:10:17;;;;;;;11.00;3.88;;;;;;;20.99;31.66;97729.63;5115749;27;20023;-81
2023/02/18 09:12:43;;;;;;;4.78;2.90;;;;;;;21.93;29.89;97730.75;5112435;27;20038;-83
2023/02/18 09:15:08;;;;;;;10.05;3.97;;;;;;;21.84;30.19;97723.53;5140962;27;20023;-80
2023/02/18 09:17:34;;;;;;;10.02;3.47;;;;;;;21.46;30.74;97710.34;5148337;27;20092;-81
2023/02/18 09:20:09;;;;;;;9.98;3.53;;;;;;;21.21;30.33;97697.53;5095152;28;20039;-81
2023/02/18 09:22:34;;;;;;;7.32;3.15;;;;;;;20.90;31.17;97687.03;5095158;28;20027;-81
2023/02/18 09:25:00;;;;;;;5.53;3.15;;;;;;;21.12;30.28;97684.88;5095040;28;20043;-82
2023/02/18 09:27:26;;;;;;;5.95;2.60;;;;;;;20.61;30.82;97674.69;5094819;28;20110;-81
2023/02/18 09:29:51;;;;;;;10.43;3.10;;;;;;;21.48;30.62;97711.03;5111497;28;20353;-80
2023/02/18 09:32:17;;;;;;;5.65;2.72;;;;;;;21.54;29.86;97691.31;5094437;28;20019;-80
2023/02/18 09:34:44;;;;;;;6.75;3.17;;;;;;;21.53;29.99;97695.09;5128534;27;20578;-80
2023/02/18 09:37:10;;;;;;;6.03;3.15;;;;;;;22.02;29.36;97697.13;5094658;28;20482;-79
2023/02/18 09:39:36;;;;;;;7.32;3.30;;;;;;;21.86;29.73;97691.53;5094218;28;20038;-80
2023/02/18 09:42:26;;;;;;;4.80;2.92;;;;;;;22.57;28.97;97704.84;5094830;28;20027;-80
2023/02/18 09:44:55;;;;;;;6.57;3.10;;;;;;;21.70;30.03;97669.66;5110473;28;20059;-80
2023/02/18 09:47:27;;;;;;;5.32;3.30;;;;;;;20.48;30.83;97642.44;5111917;28;20090;-79
2023/02/18 09:50:03;;;;;;;5.10;3.13;;;;;;;19.77;32.18;97642.25;5111234;28;20028;-80
2023/02/18 09:52:31;;;;;;;9.20;3.35;;;;;;;19.52;32.72;97636.63;5094683;28;20028;-80
2023/02/18 09:54:57;;;;;;;8.43;3.50;;;;;;;19.27;33.16;97638.09;5093983;28;20027;-81
2023/02/18 09:57:46;;;;;;;11.02;3.50;;;;;;;19.17;32.89;97629.97;5094248;28;20034;-80
2023/02/18 10:00:24;;;;;;;6.82;3.47;;;;;;;18.88;33.41;97631.91;5094712;28;20026;-81
2023/02/18 10:03:07;;;;;;;7.82;2.83;;;;;;;18.41;33.97;97620.03;5111028;28;20032;-80
2023/02/18 10:05:33;;;;;;;;;;;;;;;18.30;34.61;97641.84;5128778;27;20089;-80
2023/02/18 10:08:06;;;;;;;5.95;3.20;;;;;;;18.31;34.51;97638.97;5094126;28;20375;-80
2023/02/18 10:10:37;;;;;;;11.55;4.10;;;;;;;18.05;34.98;97635.09;5094456;28;20449;-81
2023/02/18 10:13:03;;;;;;;6.18;3.78;;;;;;;19.27;34.15;97685.09;5093705;28;20027;-80
2023/02/18 10:15:30;;;;;;;8.73;4.30;;;;;;;20.35;32.06;97685.44;5094738;28;20093;-82
2023/02/18 10:17:57;;;;;;;8.50;4.00;;;;;;;21.23;30.88;97681.91;5094059;28;20097;-83
2023/02/18 10:20:25;;;;;;;11.23;3.60;;;;;;;21.64;30.30;97675.75;5084620;28;20527;-84
2023/02/18 10:22:53;;;;;;;8.23;3.58;;;;;;;21.05;30.68;97679.19;5074167;28;20039;-85
2023/02/18 10:25:21;;;;;;;11.15;3.67;;;;;;;20.59;31.29;97663.97;5074248;28;20082;-84
2023/02/18 10:27:48;;;;;;;16.80;3.45;;;;;;;20.34;32.19;97667.41;5073868;28;20468;-84
2023/02/18 10:30:51;;;;;;;11.15;3.70;;;;;;;20.27;31.68;97656.28;5073598;28;20023;-85
2023/02/18 10:33:28;;;;;;;10.00;4.53;;;;;;;20.11;32.50;97657.94;5090407;28;20024;-85
2023/02/18 10:36:37;;;;;;;9.55;4.15;;;;;;;20.62;31.71;97677.25;5091941;28;20071;-83
2023/02/18 10:39:20;;;;;;;19.52;10.73;;;;;;;21.61;31.02;97698.72;5090516;28;20059;-84
2023/02/18 10:41:55;;;;;;;10.38;4.13;;;;;;;22.77;29.83;97700.81;5076859;28;20028;-84
2023/02/18 10:48:32;;;;;;;8.05;3.22;;;;;;;22.15;29.74;97643.00;4936322;29;20031;-84
2023/02/18 10:54:24;;;;;;;10.15;3.83;;;;;;;21.35;31.43;97618.91;4990831;28;20042;-84
2023/02/18 10:57:03;;;;;;;5.57;2.90;;;;;;;21.01;31.79;97610.63;5016191;28;20041;-84
2023/02/18 10:59:40;;;;;;;7.80;2.88;;;;;;;21.61;31.86;97646.97;4955890;28;20505;-83
2023/02/18 11:02:15;;;;;;;5.65;3.22;;;;;;;21.07;31.77;97609.16;4999108;28;20044;-84
2023/02/18 11:04:43;;;;;;;4.38;2.72;;;;;;;20.96;32.46;97634.75;5089441;28;20036;-84
2023/02/18 11:07:21;;;;;;;5.65;2.50;;;;;;;20.88;32.51;97629.25;5074041;28;20035;-83
2023/02/18 11:09:58;;;;;;;7.07;2.83;;;;;;;20.84;32.66;97607.94;5090293;28;20516;-84
2023/02/18 11:12:52;;;;;;;8.32;4.15;;;;;;;20.29;33.30;97599.97;5073237;28;20093;-85
2023/02/18 11:15:20;;;;;;;10.75;3.88;;;;;;;19.71;34.15;97577.72;5072985;28;20024;-85
2023/02/18 11:17:54;;;;;;;4.97;3.17;;;;;;;19.43;34.94;97584.13;5073080;28;20028;-86
2023/02/18 11:20:32;;;;;;;6.95;2.97;;;;;;;20.12;33.72;97597.19;5090705;28;20099;-83
2023/02/18 11:23:07;;;;;;;5.07;2.75;;;;;;;19.83;34.02;97573.78;5117064;28;20616;-84
2023/02/18 11:25:39;;;;;;;9.35;2.90;;;;;;;20.14;33.90;97590.59;5128858;27;20122;-83
2023/02/18 11:28:11;;;;;;;6.55;2.70;;;;;;;20.85;32.58;97606.94;5115747;28;20087;-83
2023/02/18 11:30:42;;;;;;;13.90;3.22;;;;;;;21.14;32.10;97593.06;5110165;28;20023;-84
2023/02/18 11:33:10;;;;;;;5.07;2.92;;;;;;;21.61;31.77;97602.56;5110781;28;20512;-86
2023/02/18 11:35:36;;;;;;;6.10;3.00;;;;;;;21.07;32.16;97571.09;5095222;28;20023;-84
2023/02/18 11:38:20;;;;;;;5.88;3.50;;;;;;;20.80;32.68;97572.03;5098065;28;20035;-84
2023/02/18 11:40:53;;;;;;;6.28;3.50;;;;;;;20.33;32.73;97541.56;5093087;28;20115;-83
2023/02/18 11:43:19;;;;;;;6.45;2.97;;;;;;;20.71;33.13;97564.84;5094913;28;20119;-85
2023/02/18 11:45:45;;;;;;;4.95;3.03;;;;;;;21.02;32.50;97573.41;5148625;27;20026;-84
2023/02/18 11:48:18;;;;;;;6.05;2.90;;;;;;;21.21;32.42;97575.09;5114011;28;20508;-86
2023/02/18 11:50:45;;;;;;;19.33;10.10;;;;;;;21.87;31.74;97591.63;5129868;27;20034;-88